sensor_id;sensor_type;location;lat;lon;timestamp;P1;durP1;ratioP1;P2;durP2;ratioP2
9716;SDS011;4897;43.570;27.832;2022-08-21T00:00:43;16.13;;;11.60;;
9716;SDS011;4897;43.570;27.832;2022-08-21T00:03:12;16.20;;;11.13;;
9716;SDS011;4897;43.570;27.832;2022-08-21T00:05:41;14.30;;;10.75;;
9716;SDS011;4897;43.570;27.832;2022-08-21T00:08:10;14.82;;;10.75;;
9716;SDS011;4897;43.570;27.832;2022-08-21T00:10:39;13.73;;;10.98;;
9716;SDS011;4897;43.570;27.832;2022-08-21T00:13:06;21.23;;;11.30;;
9716;SDS011;4897;43.570;27.832;2022-08-21T00:15:36;13.88;;;10.75;;
9716;SDS011;4897;43.570;27.832;2022-08-21T00:18:06;13.82;;;10.48;;
9716;SDS011;4897;43.570;27.832;2022-08-21T00:20:34;18.20;;;11.43;;
9716;SDS011;4897;43.570;27.832;2022-08-21T00:23:04;14.02;;;10.77;;
9716;SDS011;4897;43.570;27.832;2022-08-21T00:25:31;12.15;;;10.27;;
9716;SDS011;4897;43.570;27.832;2022-08-21T00:28:00;15.18;;;10.63;;
9716;SDS011;4897;43.570;27.832;2022-08-21T00:30:28;14.63;;;11.35;;
9716;SDS011;4897;43.570;27.832;2022-08-21T00:32:55;15.75;;;10.93;;
9716;SDS011;4897;43.570;27.832;2022-08-21T00:35:24;17.45;;;10.98;;
9716;SDS011;4897;43.570;27.832;2022-08-21T00:37:53;17.58;;;12.10;;
9716;SDS011;4897;43.570;27.832;2022-08-21T00:40:21;16.48;;;11.43;;
9716;SDS011;4897;43.570;27.832;2022-08-21T00:43:05;15.02;;;11.57;;
9716;SDS011;4897;43.570;27.832;2022-08-21T00:45:34;15.65;;;10.77;;
9716;SDS011;4897;43.570;27.832;2022-08-21T00:48:01;15.35;;;11.68;;
9716;SDS011;4897;43.570;27.832;2022-08-21T00:50:29;17.77;;;11.45;;
9716;SDS011;4897;43.570;27.832;2022-08-21T00:52:58;13.68;;;10.93;;
9716;SDS011;4897;43.570;27.832;2022-08-21T00:55:28;13.95;;;10.43;;
9716;SDS011;4897;43.570;27.832;2022-08-21T00:57:57;17.02;;;11.63;;
9716;SDS011;4897;43.570;27.832;2022-08-21T01:00:29;15.80;;;10.75;;
9716;SDS011;4897;43.570;27.832;2022-08-21T01:03:01;16.10;;;10.98;;
9716;SDS011;4897;43.570;27.832;2022-08-21T01:05:31;14.98;;;10.77;;
9716;SDS011;4897;43.570;27.832;2022-08-21T01:07:59;16.67;;;11.73;;
9716;SDS011;4897;43.570;27.832;2022-08-21T01:10:26;19.17;;;11.95;;
9716;SDS011;4897;43.570;27.832;2022-08-21T01:12:54;14.57;;;11.18;;
9716;SDS011;4897;43.570;27.832;2022-08-21T01:15:26;13.02;;;10.85;;
9716;SDS011;4897;43.570;27.832;2022-08-21T01:17:58;15.18;;;10.45;;
9716;SDS011;4897;43.570;27.832;2022-08-21T01:20:26;14.15;;;10.85;;
9716;SDS011;4897;43.570;27.832;2022-08-21T01:22:54;17.63;;;10.20;;
9716;SDS011;4897;43.570;27.832;2022-08-21T01:25:21;12.82;;;10.20;;
9716;SDS011;4897;43.570;27.832;2022-08-21T01:27:48;12.95;;;10.40;;
9716;SDS011;4897;43.570;27.832;2022-08-21T01:30:17;14.00;;;10.82;;
9716;SDS011;4897;43.570;27.832;2022-08-21T01:32:48;18.65;;;11.63;;
9716;SDS011;4897;43.570;27.832;2022-08-21T01:35:17;20.88;;;12.52;;
9716;SDS011;4897;43.570;27.832;2022-08-21T01:37:45;24.73;;;12.55;;
9716;SDS011;4897;43.570;27.832;2022-08-21T01:40:15;18.45;;;12.23;;
9716;SDS011;4897;43.570;27.832;2022-08-21T01:42:42;18.40;;;12.38;;
9716;SDS011;4897;43.570;27.832;2022-08-21T01:45:13;23.80;;;12.88;;
9716;SDS011;4897;43.570;27.832;2022-08-21T01:47:41;24.08;;;12.80;;
9716;SDS011;4897;43.570;27.832;2022-08-21T01:50:10;19.90;;;13.00;;
9716;SDS011;4897;43.570;27.832;2022-08-21T01:52:39;19.30;;;13.05;;
9716;SDS011;4897;43.570;27.832;2022-08-21T01:55:08;17.55;;;13.57;;
9716;SDS011;4897;43.570;27.832;2022-08-21T01:57:38;22.30;;;14.75;;
9716;SDS011;4897;43.570;27.832;2022-08-21T02:00:05;30.08;;;15.75;;
9716;SDS011;4897;43.570;27.832;2022-08-21T02:02:35;66.20;;;16.63;;
9716;SDS011;4897;43.570;27.832;2022-08-21T02:05:02;60.13;;;14.32;;
9716;SDS011;4897;43.570;27.832;2022-08-21T02:07:35;22.95;;;14.00;;
9716;SDS011;4897;43.570;27.832;2022-08-21T02:10:03;22.50;;;13.70;;
9716;SDS011;4897;43.570;27.832;2022-08-21T02:12:32;21.17;;;13.98;;
9716;SDS011;4897;43.570;27.832;2022-08-21T02:15:00;22.45;;;14.38;;
9716;SDS011;4897;43.570;27.832;2022-08-21T02:17:36;35.10;;;16.05;;
9716;SDS011;4897;43.570;27.832;2022-08-21T02:20:04;27.58;;;16.27;;
9716;SDS011;4897;43.570;27.832;2022-08-21T02:22:31;28.33;;;16.67;;
9716;SDS011;4897;43.570;27.832;2022-08-21T02:24:58;37.08;;;16.25;;
9716;SDS011;4897;43.570;27.832;2022-08-21T02:27:28;27.88;;;15.77;;
9716;SDS011;4897;43.570;27.832;2022-08-21T02:29:55;35.70;;;16.70;;
9716;SDS011;4897;43.570;27.832;2022-08-21T02:32:25;29.30;;;17.35;;
9716;SDS011;4897;43.570;27.832;2022-08-21T02:34:52;36.95;;;16.33;;
9716;SDS011;4897;43.570;27.832;2022-08-21T02:37:19;30.30;;;16.63;;
9716;SDS011;4897;43.570;27.832;2022-08-21T02:39:46;37.88;;;17.60;;
9716;SDS011;4897;43.570;27.832;2022-08-21T02:42:13;33.50;;;17.38;;
9716;SDS011;4897;43.570;27.832;2022-08-21T02:44:40;31.48;;;17.13;;
9716;SDS011;4897;43.570;27.832;2022-08-21T02:47:07;29.17;;;16.90;;
9716;SDS011;4897;43.570;27.832;2022-08-21T02:49:35;32.40;;;17.10;;
9716;SDS011;4897;43.570;27.832;2022-08-21T02:52:02;29.63;;;16.13;;
9716;SDS011;4897;43.570;27.832;2022-08-21T02:54:31;28.33;;;15.80;;
9716;SDS011;4897;43.570;27.832;2022-08-21T02:56:58;30.85;;;16.70;;
9716;SDS011;4897;43.570;27.832;2022-08-21T02:59:26;29.77;;;16.20;;
9716;SDS011;4897;43.570;27.832;2022-08-21T03:01:58;30.92;;;17.73;;
9716;SDS011;4897;43.570;27.832;2022-08-21T03:04:25;32.65;;;17.02;;
9716;SDS011;4897;43.570;27.832;2022-08-21T03:06:53;28.98;;;16.10;;
9716;SDS011;4897;43.570;27.832;2022-08-21T03:09:20;26.55;;;16.73;;
9716;SDS011;4897;43.570;27.832;2022-08-21T03:11:47;34.78;;;17.25;;
9716;SDS011;4897;43.570;27.832;2022-08-21T03:14:14;33.67;;;17.10;;
9716;SDS011;4897;43.570;27.832;2022-08-21T03:16:41;26.17;;;16.58;;
9716;SDS011;4897;43.570;27.832;2022-08-21T03:19:11;31.58;;;16.38;;
9716;SDS011;4897;43.570;27.832;2022-08-21T03:21:39;27.85;;;16.83;;
9716;SDS011;4897;43.570;27.832;2022-08-21T03:24:08;26.63;;;16.35;;
9716;SDS011;4897;43.570;27.832;2022-08-21T03:26:40;25.58;;;17.58;;
9716;SDS011;4897;43.570;27.832;2022-08-21T03:29:07;28.13;;;16.95;;
9716;SDS011;4897;43.570;27.832;2022-08-21T03:31:34;29.35;;;17.38;;
9716;SDS011;4897;43.570;27.832;2022-08-21T03:34:01;39.25;;;16.83;;
9716;SDS011;4897;43.570;27.832;2022-08-21T03:36:28;37.90;;;17.88;;
9716;SDS011;4897;43.570;27.832;2022-08-21T03:38:55;26.38;;;16.98;;
9716;SDS011;4897;43.570;27.832;2022-08-21T03:41:23;27.92;;;15.98;;
9716;SDS011;4897;43.570;27.832;2022-08-21T03:43:50;30.40;;;18.45;;
9716;SDS011;4897;43.570;27.832;2022-08-21T03:46:17;38.33;;;18.05;;
9716;SDS011;4897;43.570;27.832;2022-08-21T03:48:43;27.98;;;17.58;;
9716;SDS011;4897;43.570;27.832;2022-08-21T03:51:10;35.22;;;17.33;;
9716;SDS011;4897;43.570;27.832;2022-08-21T03:53:37;28.42;;;16.58;;
9716;SDS011;4897;43.570;27.832;2022-08-21T03:56:05;29.48;;;18.73;;
9716;SDS011;4897;43.570;27.832;2022-08-21T03:58:34;44.75;;;20.00;;
9716;SDS011;4897;43.570;27.832;2022-08-21T04:01:02;32.33;;;18.58;;
9716;SDS011;4897;43.570;27.832;2022-08-21T04:03:32;39.25;;;19.55;;
9716;SDS011;4897;43.570;27.832;2022-08-21T04:06:01;36.47;;;18.98;;
9716;SDS011;4897;43.570;27.832;2022-08-21T04:08:29;28.75;;;18.38;;
9716;SDS011;4897;43.570;27.832;2022-08-21T04:10:56;24.35;;;16.67;;
9716;SDS011;4897;43.570;27.832;2022-08-21T04:13:25;23.83;;;16.00;;
9716;SDS011;4897;43.570;27.832;2022-08-21T04:15:54;21.52;;;15.60;;
9716;SDS011;4897;43.570;27.832;2022-08-21T04:18:21;20.25;;;15.65;;
9716;SDS011;4897;43.570;27.832;2022-08-21T04:20:49;27.38;;;14.43;;
9716;SDS011;4897;43.570;27.832;2022-08-21T04:23:18;23.80;;;15.98;;
9716;SDS011;4897;43.570;27.832;2022-08-21T04:25:46;23.20;;;16.27;;
9716;SDS011;4897;43.570;27.832;2022-08-21T04:28:13;26.92;;;17.35;;
9716;SDS011;4897;43.570;27.832;2022-08-21T04:30:40;27.45;;;16.35;;
9716;SDS011;4897;43.570;27.832;2022-08-21T04:33:10;26.58;;;16.58;;
9716;SDS011;4897;43.570;27.832;2022-08-21T04:35:39;23.83;;;17.08;;
9716;SDS011;4897;43.570;27.832;2022-08-21T04:38:07;26.83;;;16.73;;
9716;SDS011;4897;43.570;27.832;2022-08-21T04:40:34;20.90;;;15.55;;
9716;SDS011;4897;43.570;27.832;2022-08-21T04:43:05;23.65;;;16.83;;
9716;SDS011;4897;43.570;27.832;2022-08-21T04:45:35;26.42;;;16.95;;
9716;SDS011;4897;43.570;27.832;2022-08-21T04:48:05;21.48;;;15.63;;
9716;SDS011;4897;43.570;27.832;2022-08-21T04:50:38;22.25;;;15.43;;
9716;SDS011;4897;43.570;27.832;2022-08-21T04:53:09;24.30;;;16.48;;
9716;SDS011;4897;43.570;27.832;2022-08-21T04:55:39;22.27;;;15.80;;
9716;SDS011;4897;43.570;27.832;2022-08-21T04:58:08;21.73;;;15.00;;
9716;SDS011;4897;43.570;27.832;2022-08-21T05:00:37;20.92;;;14.80;;
9716;SDS011;4897;43.570;27.832;2022-08-21T05:03:05;20.42;;;14.95;;
9716;SDS011;4897;43.570;27.832;2022-08-21T05:05:37;18.10;;;12.80;;
9716;SDS011;4897;43.570;27.832;2022-08-21T05:08:04;14.68;;;12.00;;
9716;SDS011;4897;43.570;27.832;2022-08-21T05:10:34;13.30;;;10.80;;
9716;SDS011;4897;43.570;27.832;2022-08-21T05:13:01;12.65;;;9.98;;
9716;SDS011;4897;43.570;27.832;2022-08-21T05:15:30;10.80;;;9.40;;
9716;SDS011;4897;43.570;27.832;2022-08-21T05:17:58;12.68;;;9.55;;
9716;SDS011;4897;43.570;27.832;2022-08-21T05:20:29;14.88;;;12.45;;
9716;SDS011;4897;43.570;27.832;2022-08-21T05:23:08;16.35;;;12.23;;
9716;SDS011;4897;43.570;27.832;2022-08-21T05:25:38;14.82;;;11.63;;
9716;SDS011;4897;43.570;27.832;2022-08-21T05:28:07;16.33;;;11.73;;
9716;SDS011;4897;43.570;27.832;2022-08-21T05:30:34;17.42;;;12.43;;
9716;SDS011;4897;43.570;27.832;2022-08-21T05:33:03;16.45;;;12.25;;
9716;SDS011;4897;43.570;27.832;2022-08-21T05:35:34;20.42;;;14.90;;
9716;SDS011;4897;43.570;27.832;2022-08-21T05:38:01;19.60;;;13.88;;
9716;SDS011;4897;43.570;27.832;2022-08-21T05:40:30;19.17;;;13.73;;
9716;SDS011;4897;43.570;27.832;2022-08-21T05:42:57;17.65;;;13.93;;
9716;SDS011;4897;43.570;27.832;2022-08-21T05:45:26;16.80;;;13.93;;
9716;SDS011;4897;43.570;27.832;2022-08-21T05:47:54;19.23;;;13.93;;
9716;SDS011;4897;43.570;27.832;2022-08-21T05:50:24;20.67;;;17.65;;
9716;SDS011;4897;43.570;27.832;2022-08-21T05:52:53;21.70;;;15.10;;
9716;SDS011;4897;43.570;27.832;2022-08-21T05:55:20;21.52;;;15.27;;
9716;SDS011;4897;43.570;27.832;2022-08-21T05:57:50;20.13;;;14.68;;
9716;SDS011;4897;43.570;27.832;2022-08-21T06:00:17;18.20;;;14.52;;
9716;SDS011;4897;43.570;27.832;2022-08-21T06:02:50;21.60;;;14.20;;
9716;SDS011;4897;43.570;27.832;2022-08-21T06:05:19;21.02;;;13.52;;
9716;SDS011;4897;43.570;27.832;2022-08-21T06:07:46;17.52;;;12.40;;
9716;SDS011;4897;43.570;27.832;2022-08-21T06:10:14;17.05;;;13.57;;
9716;SDS011;4897;43.570;27.832;2022-08-21T06:12:41;15.95;;;12.75;;
9716;SDS011;4897;43.570;27.832;2022-08-21T06:15:10;17.15;;;12.68;;
9716;SDS011;4897;43.570;27.832;2022-08-21T06:17:39;16.63;;;12.07;;
9716;SDS011;4897;43.570;27.832;2022-08-21T06:20:06;17.15;;;13.00;;
9716;SDS011;4897;43.570;27.832;2022-08-21T06:22:36;14.27;;;11.55;;
9716;SDS011;4897;43.570;27.832;2022-08-21T06:25:05;11.68;;;8.75;;
9716;SDS011;4897;43.570;27.832;2022-08-21T06:27:35;9.98;;;8.57;;
9716;SDS011;4897;43.570;27.832;2022-08-21T06:30:05;14.13;;;9.13;;
9716;SDS011;4897;43.570;27.832;2022-08-21T06:32:35;13.50;;;9.45;;
9716;SDS011;4897;43.570;27.832;2022-08-21T06:35:02;11.60;;;9.35;;
9716;SDS011;4897;43.570;27.832;2022-08-21T06:37:33;13.68;;;9.35;;
9716;SDS011;4897;43.570;27.832;2022-08-21T06:40:00;11.60;;;8.70;;
9716;SDS011;4897;43.570;27.832;2022-08-21T06:42:27;14.38;;;9.18;;
9716;SDS011;4897;43.570;27.832;2022-08-21T06:44:54;12.00;;;9.40;;
9716;SDS011;4897;43.570;27.832;2022-08-21T06:47:23;13.45;;;8.63;;
9716;SDS011;4897;43.570;27.832;2022-08-21T06:49:52;12.82;;;9.02;;
9716;SDS011;4897;43.570;27.832;2022-08-21T06:52:21;13.10;;;8.68;;
9716;SDS011;4897;43.570;27.832;2022-08-21T06:54:48;8.45;;;6.13;;
9716;SDS011;4897;43.570;27.832;2022-08-21T06:57:19;10.32;;;6.28;;
9716;SDS011;4897;43.570;27.832;2022-08-21T06:59:46;11.27;;;6.40;;
9716;SDS011;4897;43.570;27.832;2022-08-21T07:02:14;15.02;;;6.53;;
9716;SDS011;4897;43.570;27.832;2022-08-21T07:04:43;8.55;;;6.40;;
9716;SDS011;4897;43.570;27.832;2022-08-21T07:07:14;7.07;;;5.22;;
9716;SDS011;4897;43.570;27.832;2022-08-21T07:09:41;8.07;;;5.32;;
9716;SDS011;4897;43.570;27.832;2022-08-21T07:12:08;6.95;;;5.47;;
9716;SDS011;4897;43.570;27.832;2022-08-21T07:14:36;9.50;;;5.35;;
9716;SDS011;4897;43.570;27.832;2022-08-21T07:17:03;10.35;;;5.50;;
9716;SDS011;4897;43.570;27.832;2022-08-21T07:19:32;11.73;;;5.80;;
9716;SDS011;4897;43.570;27.832;2022-08-21T07:22:00;9.52;;;5.75;;
9716;SDS011;4897;43.570;27.832;2022-08-21T07:24:30;9.43;;;5.15;;
9716;SDS011;4897;43.570;27.832;2022-08-21T07:26:59;11.00;;;5.20;;
9716;SDS011;4897;43.570;27.832;2022-08-21T07:29:26;7.65;;;5.43;;
9716;SDS011;4897;43.570;27.832;2022-08-21T07:31:53;13.50;;;5.07;;
9716;SDS011;4897;43.570;27.832;2022-08-21T07:34:22;7.80;;;5.00;;
9716;SDS011;4897;43.570;27.832;2022-08-21T07:36:49;7.63;;;4.47;;
9716;SDS011;4897;43.570;27.832;2022-08-21T07:39:17;8.32;;;4.55;;
9716;SDS011;4897;43.570;27.832;2022-08-21T07:41:45;6.75;;;4.10;;
9716;SDS011;4897;43.570;27.832;2022-08-21T07:44:12;5.00;;;4.03;;
9716;SDS011;4897;43.570;27.832;2022-08-21T07:46:39;7.07;;;4.40;;
9716;SDS011;4897;43.570;27.832;2022-08-21T07:49:06;9.57;;;5.70;;
9716;SDS011;4897;43.570;27.832;2022-08-21T07:51:33;7.95;;;4.95;;
9716;SDS011;4897;43.570;27.832;2022-08-21T07:54:02;6.95;;;5.07;;
9716;SDS011;4897;43.570;27.832;2022-08-21T07:56:30;12.38;;;4.40;;
9716;SDS011;4897;43.570;27.832;2022-08-21T07:58:58;8.07;;;4.40;;
9716;SDS011;4897;43.570;27.832;2022-08-21T08:01:27;9.27;;;4.53;;
9716;SDS011;4897;43.570;27.832;2022-08-21T08:03:54;7.57;;;4.68;;
9716;SDS011;4897;43.570;27.832;2022-08-21T08:06:22;9.07;;;4.63;;
9716;SDS011;4897;43.570;27.832;2022-08-21T08:08:51;6.75;;;4.68;;
9716;SDS011;4897;43.570;27.832;2022-08-21T08:11:19;7.22;;;4.53;;
9716;SDS011;4897;43.570;27.832;2022-08-21T08:13:48;7.40;;;4.80;;
9716;SDS011;4897;43.570;27.832;2022-08-21T08:16:18;9.80;;;4.82;;
9716;SDS011;4897;43.570;27.832;2022-08-21T08:18:46;10.77;;;4.90;;
9716;SDS011;4897;43.570;27.832;2022-08-21T08:21:14;13.05;;;5.18;;
9716;SDS011;4897;43.570;27.832;2022-08-21T08:23:42;5.90;;;4.80;;
9716;SDS011;4897;43.570;27.832;2022-08-21T08:26:13;9.57;;;5.10;;
9716;SDS011;4897;43.570;27.832;2022-08-21T08:28:40;7.30;;;5.03;;
9716;SDS011;4897;43.570;27.832;2022-08-21T08:31:08;10.43;;;5.07;;
9716;SDS011;4897;43.570;27.832;2022-08-21T08:33:36;11.48;;;4.63;;
9716;SDS011;4897;43.570;27.832;2022-08-21T08:36:12;5.35;;;4.78;;
9716;SDS011;4897;43.570;27.832;2022-08-21T08:38:39;8.52;;;4.90;;
9716;SDS011;4897;43.570;27.832;2022-08-21T08:41:08;16.60;;;4.97;;
9716;SDS011;4897;43.570;27.832;2022-08-21T08:43:39;8.82;;;4.50;;
9716;SDS011;4897;43.570;27.832;2022-08-21T08:46:10;8.15;;;4.90;;
9716;SDS011;4897;43.570;27.832;2022-08-21T08:48:45;10.50;;;4.30;;
9716;SDS011;4897;43.570;27.832;2022-08-21T08:51:18;5.60;;;4.07;;
9716;SDS011;4897;43.570;27.832;2022-08-21T08:53:52;8.77;;;4.60;;
9716;SDS011;4897;43.570;27.832;2022-08-21T08:56:29;7.93;;;4.82;;
9716;SDS011;4897;43.570;27.832;2022-08-21T09:01:46;26.25;;;22.30;;
9716;SDS011;4897;43.570;27.832;2022-08-21T09:04:18;8.32;;;5.00;;
9716;SDS011;4897;43.570;27.832;2022-08-21T09:06:56;9.20;;;4.82;;
9716;SDS011;4897;43.570;27.832;2022-08-21T09:09:34;7.97;;;4.80;;
9716;SDS011;4897;43.570;27.832;2022-08-21T09:12:16;8.38;;;4.70;;
9716;SDS011;4897;43.570;27.832;2022-08-21T09:14:57;8.10;;;4.85;;
9716;SDS011;4897;43.570;27.832;2022-08-21T09:17:38;5.55;;;4.53;;
9716;SDS011;4897;43.570;27.832;2022-08-21T09:20:17;7.93;;;4.55;;
9716;SDS011;4897;43.570;27.832;2022-08-21T09:22:53;5.95;;;4.55;;
9716;SDS011;4897;43.570;27.832;2022-08-21T09:25:32;4.85;;;4.40;;
9716;SDS011;4897;43.570;27.832;2022-08-21T09:28:08;5.07;;;4.00;;
9716;SDS011;4897;43.570;27.832;2022-08-21T09:30:39;8.77;;;4.50;;
9716;SDS011;4897;43.570;27.832;2022-08-21T09:33:07;9.18;;;3.88;;
9716;SDS011;4897;43.570;27.832;2022-08-21T09:35:47;5.25;;;3.70;;
9716;SDS011;4897;43.570;27.832;2022-08-21T09:38:23;11.00;;;4.78;;
9716;SDS011;4897;43.570;27.832;2022-08-21T09:40:55;4.45;;;3.72;;
9716;SDS011;4897;43.570;27.832;2022-08-21T09:43:26;8.23;;;4.35;;
9716;SDS011;4897;43.570;27.832;2022-08-21T09:46:05;4.68;;;3.50;;
9716;SDS011;4897;43.570;27.832;2022-08-21T09:48:42;7.20;;;3.70;;
9716;SDS011;4897;43.570;27.832;2022-08-21T09:51:14;7.82;;;4.07;;
9716;SDS011;4897;43.570;27.832;2022-08-21T09:53:47;5.22;;;3.75;;
9716;SDS011;4897;43.570;27.832;2022-08-21T09:56:20;12.07;;;3.50;;
9716;SDS011;4897;43.570;27.832;2022-08-21T09:59:19;7.65;;;3.65;;
9716;SDS011;4897;43.570;27.832;2022-08-21T10:01:57;8.13;;;3.90;;
9716;SDS011;4897;43.570;27.832;2022-08-21T10:04:27;7.90;;;3.40;;
9716;SDS011;4897;43.570;27.832;2022-08-21T10:07:07;7.63;;;3.65;;
9716;SDS011;4897;43.570;27.832;2022-08-21T10:09:37;7.45;;;3.20;;
9716;SDS011;4897;43.570;27.832;2022-08-21T10:12:11;5.82;;;2.97;;
9716;SDS011;4897;43.570;27.832;2022-08-21T10:14:50;8.52;;;3.50;;
9716;SDS011;4897;43.570;27.832;2022-08-21T10:17:27;5.65;;;3.08;;
9716;SDS011;4897;43.570;27.832;2022-08-21T10:20:04;5.40;;;3.10;;
9716;SDS011;4897;43.570;27.832;2022-08-21T10:22:41;8.48;;;3.45;;
9716;SDS011;4897;43.570;27.832;2022-08-21T10:25:14;5.43;;;3.00;;
9716;SDS011;4897;43.570;27.832;2022-08-21T10:27:51;5.47;;;3.00;;
9716;SDS011;4897;43.570;27.832;2022-08-21T10:30:26;4.70;;;2.95;;
9716;SDS011;4897;43.570;27.832;2022-08-21T10:33:04;7.20;;;3.13;;
9716;SDS011;4897;43.570;27.832;2022-08-21T10:35:44;4.63;;;3.25;;
9716;SDS011;4897;43.570;27.832;2022-08-21T10:41:40;5.95;;;2.92;;
9716;SDS011;4897;43.570;27.832;2022-08-21T10:44:29;5.47;;;3.55;;
9716;SDS011;4897;43.570;27.832;2022-08-21T10:47:04;6.97;;;3.22;;
9716;SDS011;4897;43.570;27.832;2022-08-21T10:49:38;7.13;;;3.25;;
9716;SDS011;4897;43.570;27.832;2022-08-21T10:52:21;8.40;;;3.67;;
9716;SDS011;4897;43.570;27.832;2022-08-21T10:55:06;7.00;;;3.67;;
9716;SDS011;4897;43.570;27.832;2022-08-21T10:57:38;6.32;;;3.70;;
9716;SDS011;4897;43.570;27.832;2022-08-21T11:00:10;5.63;;;3.50;;
9716;SDS011;4897;43.570;27.832;2022-08-21T11:02:41;12.10;;;3.47;;
9716;SDS011;4897;43.570;27.832;2022-08-21T11:05:16;7.30;;;3.83;;
9716;SDS011;4897;43.570;27.832;2022-08-21T11:07:48;4.50;;;3.50;;
9716;SDS011;4897;43.570;27.832;2022-08-21T11:10:22;5.88;;;3.30;;
9716;SDS011;4897;43.570;27.832;2022-08-21T11:12:54;11.38;;;3.72;;
9716;SDS011;4897;43.570;27.832;2022-08-21T11:15:33;7.43;;;3.75;;
9716;SDS011;4897;43.570;27.832;2022-08-21T11:21:01;7.65;;;3.85;;
9716;SDS011;4897;43.570;27.832;2022-08-21T11:23:36;9.90;;;4.10;;
9716;SDS011;4897;43.570;27.832;2022-08-21T11:26:11;6.40;;;4.35;;
9716;SDS011;4897;43.570;27.832;2022-08-21T11:28:44;10.85;;;3.90;;
9716;SDS011;4897;43.570;27.832;2022-08-21T11:31:20;5.18;;;3.80;;
9716;SDS011;4897;43.570;27.832;2022-08-21T11:34:04;9.30;;;4.20;;
9716;SDS011;4897;43.570;27.832;2022-08-21T11:36:45;5.90;;;3.95;;
9716;SDS011;4897;43.570;27.832;2022-08-21T11:39:22;4.82;;;4.28;;
9716;SDS011;4897;43.570;27.832;2022-08-21T11:42:01;5.95;;;4.03;;
9716;SDS011;4897;43.570;27.832;2022-08-21T11:44:41;12.32;;;5.22;;
9716;SDS011;4897;43.570;27.832;2022-08-21T11:47:19;7.70;;;5.15;;
9716;SDS011;4897;43.570;27.832;2022-08-21T11:50:02;11.32;;;5.57;;
9716;SDS011;4897;43.570;27.832;2022-08-21T11:52:42;11.85;;;5.53;;
9716;SDS011;4897;43.570;27.832;2022-08-21T11:55:19;16.75;;;5.60;;
9716;SDS011;4897;43.570;27.832;2022-08-21T11:57:55;14.40;;;6.05;;
9716;SDS011;4897;43.570;27.832;2022-08-21T12:00:26;10.18;;;4.95;;
9716;SDS011;4897;43.570;27.832;2022-08-21T12:02:59;13.25;;;5.78;;
9716;SDS011;4897;43.570;27.832;2022-08-21T12:05:37;9.57;;;5.50;;
9716;SDS011;4897;43.570;27.832;2022-08-21T12:08:09;5.70;;;5.03;;
9716;SDS011;4897;43.570;27.832;2022-08-21T12:10:39;7.35;;;4.82;;
9716;SDS011;4897;43.570;27.832;2022-08-21T12:13:11;11.00;;;4.90;;
9716;SDS011;4897;43.570;27.832;2022-08-21T12:15:49;8.15;;;4.35;;
9716;SDS011;4897;43.570;27.832;2022-08-21T12:18:20;6.15;;;4.18;;
9716;SDS011;4897;43.570;27.832;2022-08-21T12:21:00;8.27;;;4.72;;
9716;SDS011;4897;43.570;27.832;2022-08-21T12:23:31;7.88;;;4.82;;
9716;SDS011;4897;43.570;27.832;2022-08-21T12:26:13;4.93;;;4.43;;
9716;SDS011;4897;43.570;27.832;2022-08-21T12:28:50;7.05;;;4.53;;
9716;SDS011;4897;43.570;27.832;2022-08-21T12:31:18;11.48;;;5.40;;
9716;SDS011;4897;43.570;27.832;2022-08-21T12:33:49;6.93;;;5.05;;
9716;SDS011;4897;43.570;27.832;2022-08-21T12:36:21;5.75;;;4.82;;
9716;SDS011;4897;43.570;27.832;2022-08-21T12:38:51;6.05;;;4.72;;
9716;SDS011;4897;43.570;27.832;2022-08-21T12:41:24;6.45;;;4.85;;
9716;SDS011;4897;43.570;27.832;2022-08-21T12:43:58;10.35;;;5.15;;
9716;SDS011;4897;43.570;27.832;2022-08-21T12:46:30;6.82;;;5.53;;
9716;SDS011;4897;43.570;27.832;2022-08-21T12:49:05;8.93;;;5.32;;
9716;SDS011;4897;43.570;27.832;2022-08-21T12:51:46;8.73;;;6.38;;
9716;SDS011;4897;43.570;27.832;2022-08-21T12:54:24;13.20;;;7.40;;
9716;SDS011;4897;43.570;27.832;2022-08-21T12:56:56;8.68;;;5.65;;
9716;SDS011;4897;43.570;27.832;2022-08-21T12:59:36;20.05;;;6.20;;
9716;SDS011;4897;43.570;27.832;2022-08-21T13:02:10;7.53;;;6.07;;
9716;SDS011;4897;43.570;27.832;2022-08-21T13:04:43;6.18;;;5.13;;
9716;SDS011;4897;43.570;27.832;2022-08-21T13:07:11;9.48;;;5.32;;
9716;SDS011;4897;43.570;27.832;2022-08-21T13:09:42;6.50;;;5.30;;
9716;SDS011;4897;43.570;27.832;2022-08-21T13:12:14;10.20;;;5.80;;
9716;SDS011;4897;43.570;27.832;2022-08-21T13:14:45;7.35;;;5.30;;
9716;SDS011;4897;43.570;27.832;2022-08-21T13:17:17;6.93;;;5.43;;
9716;SDS011;4897;43.570;27.832;2022-08-21T13:19:56;5.97;;;4.72;;
9716;SDS011;4897;43.570;27.832;2022-08-21T13:22:25;7.25;;;5.35;;
9716;SDS011;4897;43.570;27.832;2022-08-21T13:24:55;13.15;;;5.75;;
9716;SDS011;4897;43.570;27.832;2022-08-21T13:27:24;7.88;;;5.03;;
9716;SDS011;4897;43.570;27.832;2022-08-21T13:30:04;6.53;;;4.93;;
9716;SDS011;4897;43.570;27.832;2022-08-21T13:32:34;7.65;;;5.15;;
9716;SDS011;4897;43.570;27.832;2022-08-21T13:35:12;6.68;;;4.78;;
9716;SDS011;4897;43.570;27.832;2022-08-21T13:37:44;6.75;;;4.50;;
9716;SDS011;4897;43.570;27.832;2022-08-21T13:40:17;6.50;;;4.90;;
9716;SDS011;4897;43.570;27.832;2022-08-21T13:42:48;10.50;;;4.45;;
9716;SDS011;4897;43.570;27.832;2022-08-21T13:45:18;7.25;;;4.18;;
9716;SDS011;4897;43.570;27.832;2022-08-21T13:47:54;5.15;;;3.97;;
9716;SDS011;4897;43.570;27.832;2022-08-21T13:50:22;7.25;;;4.25;;
9716;SDS011;4897;43.570;27.832;2022-08-21T13:52:55;7.32;;;4.50;;
9716;SDS011;4897;43.570;27.832;2022-08-21T13:55:33;5.00;;;4.43;;
9716;SDS011;4897;43.570;27.832;2022-08-21T13:58:03;5.50;;;4.10;;
9716;SDS011;4897;43.570;27.832;2022-08-21T14:00:43;6.50;;;4.60;;
9716;SDS011;4897;43.570;27.832;2022-08-21T14:03:11;7.07;;;4.78;;
9716;SDS011;4897;43.570;27.832;2022-08-21T14:05:52;6.95;;;4.53;;
9716;SDS011;4897;43.570;27.832;2022-08-21T14:08:21;9.65;;;4.80;;
9716;SDS011;4897;43.570;27.832;2022-08-21T14:10:53;8.15;;;5.20;;
9716;SDS011;4897;43.570;27.832;2022-08-21T14:13:28;13.02;;;5.63;;
9716;SDS011;4897;43.570;27.832;2022-08-21T14:16:12;7.72;;;4.95;;
9716;SDS011;4897;43.570;27.832;2022-08-21T14:18:46;7.53;;;4.80;;
9716;SDS011;4897;43.570;27.832;2022-08-21T14:21:24;7.55;;;4.55;;
9716;SDS011;4897;43.570;27.832;2022-08-21T14:24:04;5.53;;;4.55;;
9716;SDS011;4897;43.570;27.832;2022-08-21T14:26:35;8.02;;;4.35;;
9716;SDS011;4897;43.570;27.832;2022-08-21T14:29:09;7.55;;;4.55;;
9716;SDS011;4897;43.570;27.832;2022-08-21T14:31:43;8.68;;;4.70;;
9716;SDS011;4897;43.570;27.832;2022-08-21T14:34:16;6.25;;;4.22;;
9716;SDS011;4897;43.570;27.832;2022-08-21T14:37:00;6.72;;;4.32;;
9716;SDS011;4897;43.570;27.832;2022-08-21T14:39:29;6.35;;;4.10;;
9716;SDS011;4897;43.570;27.832;2022-08-21T14:41:56;5.03;;;4.45;;
9716;SDS011;4897;43.570;27.832;2022-08-21T14:44:27;11.70;;;4.00;;
9716;SDS011;4897;43.570;27.832;2022-08-21T14:46:56;11.38;;;4.22;;
9716;SDS011;4897;43.570;27.832;2022-08-21T14:49:24;5.50;;;4.10;;
9716;SDS011;4897;43.570;27.832;2022-08-21T14:51:54;5.10;;;4.30;;
9716;SDS011;4897;43.570;27.832;2022-08-21T14:54:22;11.63;;;4.45;;
9716;SDS011;4897;43.570;27.832;2022-08-21T14:56:49;10.18;;;4.60;;
9716;SDS011;4897;43.570;27.832;2022-08-21T14:59:16;8.45;;;4.22;;
9716;SDS011;4897;43.570;27.832;2022-08-21T15:01:45;5.57;;;4.32;;
9716;SDS011;4897;43.570;27.832;2022-08-21T15:04:14;8.40;;;4.63;;
9716;SDS011;4897;43.570;27.832;2022-08-21T15:06:41;5.82;;;4.00;;
9716;SDS011;4897;43.570;27.832;2022-08-21T15:09:11;10.23;;;5.07;;
9716;SDS011;4897;43.570;27.832;2022-08-21T15:11:37;6.68;;;4.28;;
9716;SDS011;4897;43.570;27.832;2022-08-21T15:14:06;6.07;;;4.30;;
9716;SDS011;4897;43.570;27.832;2022-08-21T15:16:34;8.38;;;4.22;;
9716;SDS011;4897;43.570;27.832;2022-08-21T15:19:01;6.15;;;4.43;;